createdAt,value
2023-04-22T00:01:37.164Z,8.30
2023-04-22T00:04:07.616Z,7.78
2023-04-22T00:06:36.198Z,7.47
2023-04-22T00:09:04.521Z,6.18
2023-04-22T00:11:32.729Z,7.15
2023-04-22T00:14:00.771Z,8.73
2023-04-22T00:16:28.977Z,6.80
2023-04-22T00:18:57.260Z,6.95
2023-04-22T00:21:27.361Z,8.27
2023-04-22T00:23:55.740Z,11.95
2023-04-22T00:26:23.871Z,7.57
2023-04-22T00:28:52.013Z,7.13
2023-04-22T00:31:20.253Z,5.90
2023-04-22T00:33:48.369Z,8.95
2023-04-22T00:36:16.714Z,9.40
2023-04-22T00:38:49.895Z,8.00
2023-04-22T00:41:18.809Z,10.07
2023-04-22T00:43:47.255Z,9.45
2023-04-22T00:46:17.393Z,9.38
2023-04-22T00:48:47.324Z,8.07
2023-04-22T00:51:15.476Z,7.65
2023-04-22T00:53:43.559Z,5.90
2023-04-22T00:56:14.125Z,6.97
2023-04-22T00:58:42.275Z,6.68
2023-04-22T01:01:10.701Z,11.30
2023-04-22T01:03:41.776Z,11.15
2023-04-22T01:06:10.193Z,8.68
2023-04-22T01:08:38.257Z,9.45
2023-04-22T01:11:06.522Z,8.27
2023-04-22T01:13:38.386Z,12.85
2023-04-22T01:16:10.094Z,6.85
2023-04-22T01:18:38.626Z,7.25
2023-04-22T01:21:07.331Z,5.60
2023-04-22T01:23:36.791Z,7.45
2023-04-22T01:26:04.891Z,9.20
2023-04-22T01:28:33.331Z,9.15
2023-04-22T01:31:02.040Z,8.93
2023-04-22T01:33:31.143Z,7.45
2023-04-22T01:35:59.298Z,6.60
2023-04-22T01:38:28.896Z,6.03
2023-04-22T01:40:59.852Z,7.38
2023-04-22T01:43:28.644Z,7.97
2023-04-22T01:45:58.080Z,8.48
2023-04-22T01:48:26.062Z,11.48
2023-04-22T01:50:54.275Z,8.32
2023-04-22T01:53:22.382Z,7.50
2023-04-22T01:55:53.933Z,7.82
2023-04-22T01:58:23.399Z,7.90
2023-04-22T02:00:51.561Z,7.72
2023-04-22T02:03:19.760Z,8.80
2023-04-22T02:05:47.931Z,6.18
2023-04-22T02:08:16.506Z,7.78
2023-04-22T02:10:45.791Z,8.50
2023-04-22T02:13:14.208Z,7.60
2023-04-22T02:15:43.660Z,10.32
2023-04-22T02:18:11.907Z,8.55
2023-04-22T02:20:40.050Z,7.05
2023-04-22T02:23:08.214Z,5.85
2023-04-22T02:25:36.910Z,9.20
2023-04-22T02:28:05.118Z,7.00
2023-04-22T02:30:33.259Z,7.43
2023-04-22T02:33:03.900Z,7.35
2023-04-22T02:35:32.048Z,7.85
2023-04-22T02:38:00.094Z,6.28
2023-04-22T02:40:28.240Z,6.25
2023-04-22T02:42:56.308Z,8.30
2023-04-22T02:45:24.534Z,7.15
2023-04-22T02:47:52.613Z,6.82
2023-04-22T02:50:22.505Z,8.20
2023-04-22T02:52:51.472Z,10.85
2023-04-22T02:55:19.777Z,9.43
2023-04-22T02:57:47.862Z,9.43
2023-04-22T03:00:16.181Z,7.25
2023-04-22T03:02:44.547Z,9.65
2023-04-22T03:05:16.055Z,7.10
2023-04-22T03:07:47.493Z,7.53
2023-04-22T03:10:17.526Z,7.32
2023-04-22T03:12:45.902Z,6.68
2023-04-22T03:15:14.310Z,7.05
2023-04-22T03:17:42.387Z,7.90
2023-04-22T03:20:14.247Z,6.25
2023-04-22T03:22:43.348Z,10.52
2023-04-22T03:25:14.633Z,10.55
2023-04-22T03:27:47.001Z,8.85
2023-04-22T03:30:15.434Z,8.02
2023-04-22T03:32:44.549Z,10.60
2023-04-22T03:35:34.881Z,8.05
2023-04-22T03:38:03.529Z,12.48
2023-04-22T03:40:37.201Z,9.20
2023-04-22T03:43:13.903Z,11.25
2023-04-22T03:45:42.098Z,12.48
2023-04-22T03:48:17.781Z,10.73
2023-04-22T03:50:49.986Z,9.88
2023-04-22T03:53:18.672Z,8.80
2023-04-22T03:55:48.419Z,9.57
2023-04-22T03:58:19.168Z,12.27
2023-04-22T04:00:48.618Z,6.40
2023-04-22T04:03:18.697Z,8.02
2023-04-22T04:05:50.652Z,6.22
2023-04-22T04:08:18.842Z,7.78
2023-04-22T04:10:48.241Z,9.52
2023-04-22T04:13:17.317Z,7.15
2023-04-22T04:16:00.423Z,9.02
2023-04-22T04:18:30.928Z,8.23
2023-04-22T04:20:59.458Z,8.98
2023-04-22T04:23:32.092Z,8.15
2023-04-22T04:26:05.735Z,9.60
2023-04-22T04:28:37.458Z,8.32
2023-04-22T04:31:06.294Z,6.97
2023-04-22T04:33:37.053Z,8.15
2023-04-22T04:36:06.616Z,10.05
2023-04-22T04:38:36.218Z,8.40
2023-04-22T04:41:06.094Z,9.02
2023-04-22T04:43:35.810Z,8.48
2023-04-22T04:46:14.183Z,5.32
2023-04-22T04:48:43.116Z,5.93
2023-04-22T04:51:11.701Z,7.55
2023-04-22T04:53:48.785Z,5.97
2023-04-22T04:56:18.217Z,8.10
2023-04-22T04:58:47.618Z,7.60
2023-04-22T05:03:50.233Z,6.70
2023-04-22T05:06:20.699Z,7.72
2023-04-22T05:08:54.000Z,7.63
2023-04-22T05:11:23.747Z,9.15
2023-04-22T05:13:53.749Z,6.28
2023-04-22T05:16:28.369Z,7.18
2023-04-22T05:18:57.138Z,8.27
2023-04-22T05:21:25.255Z,9.20
2023-04-22T05:23:53.453Z,7.93
2023-04-22T05:26:23.142Z,8.77
2023-04-22T05:28:51.996Z,5.53
2023-04-22T05:31:21.002Z,7.95
2023-04-22T05:33:49.288Z,7.88
2023-04-22T05:36:17.483Z,8.43
2023-04-22T05:38:48.133Z,6.25
2023-04-22T05:41:16.888Z,5.93
2023-04-22T05:43:46.477Z,6.88
2023-04-22T05:46:18.410Z,8.07
2023-04-22T05:48:48.822Z,5.07
2023-04-22T05:51:36.843Z,6.97
2023-04-22T05:54:05.550Z,6.38
2023-04-22T05:56:33.703Z,8.35
2023-04-22T05:59:03.440Z,6.30
2023-04-22T06:01:31.560Z,6.10
2023-04-22T06:04:05.435Z,6.32
2023-04-22T06:06:34.190Z,6.68
2023-04-22T06:09:02.309Z,7.35
2023-04-22T06:11:30.517Z,8.27
2023-04-22T06:13:58.640Z,7.10
2023-04-22T06:16:28.785Z,5.63
2023-04-22T06:18:57.101Z,6.70
2023-04-22T06:21:26.789Z,5.78
2023-04-22T06:23:54.880Z,5.13
2023-04-22T06:26:23.174Z,6.65
2023-04-22T06:28:51.611Z,5.57
2023-04-22T06:31:22.452Z,6.57
2023-04-22T06:33:51.981Z,7.18
2023-04-22T06:36:20.994Z,6.28
2023-04-22T06:38:55.340Z,7.90
2023-04-22T06:41:44.678Z,6.47
2023-04-22T06:44:30.013Z,6.65
2023-04-22T06:47:16.220Z,7.55
2023-04-22T06:49:54.286Z,8.05
2023-04-22T06:52:26.316Z,7.25
2023-04-22T06:54:58.150Z,9.57
2023-04-22T06:57:26.458Z,6.15
2023-04-22T06:59:54.558Z,7.63
2023-04-22T07:02:24.804Z,5.40
2023-04-22T07:04:54.331Z,6.45
2023-04-22T07:07:22.696Z,6.10
2023-04-22T07:09:51.092Z,6.35
2023-04-22T07:12:19.336Z,7.95
2023-04-22T07:14:47.819Z,8.07
2023-04-22T07:17:19.295Z,7.25
2023-04-22T07:19:47.463Z,6.22
2023-04-22T07:22:16.934Z,5.13
2023-04-22T07:24:45.050Z,6.43
2023-04-22T07:27:13.220Z,7.57
2023-04-22T07:29:41.702Z,6.70
2023-04-22T07:32:10.548Z,5.65
2023-04-22T07:34:38.742Z,10.23
2023-04-22T07:37:09.506Z,7.28
2023-04-22T07:39:39.280Z,6.97
2023-04-22T07:42:08.023Z,11.25
2023-04-22T07:44:38.855Z,7.40
2023-04-22T07:47:08.780Z,10.85
2023-04-22T07:49:37.342Z,7.40
2023-04-22T07:52:05.740Z,9.57
2023-04-22T07:54:33.887Z,12.27
2023-04-22T07:57:03.420Z,11.75
2023-04-22T07:59:31.427Z,18.98
2023-04-22T08:01:59.573Z,17.55
2023-04-22T08:04:27.913Z,18.52
2023-04-22T08:06:57.534Z,14.38
2023-04-22T08:09:26.748Z,19.65
2023-04-22T08:11:58.524Z,22.95
2023-04-22T08:14:31.500Z,24.63
2023-04-22T08:17:00.467Z,24.50
2023-04-22T08:19:28.612Z,18.48
2023-04-22T08:21:56.767Z,18.73
2023-04-22T08:24:24.911Z,15.43
2023-04-22T08:26:53.072Z,13.45
2023-04-22T08:29:21.317Z,11.82
2023-04-22T08:31:50.765Z,11.82
2023-04-22T08:34:18.876Z,11.90
2023-04-22T08:36:47.093Z,13.00
2023-04-22T08:39:16.037Z,10.35
2023-04-22T08:41:46.874Z,11.32
2023-04-22T08:44:16.793Z,12.02
2023-04-22T08:46:47.231Z,9.80
2023-04-22T08:49:16.992Z,10.52
2023-04-22T08:51:46.493Z,13.00
2023-04-22T08:54:15.174Z,10.30
2023-04-22T08:56:46.173Z,9.27
2023-04-22T08:59:15.140Z,10.50
2023-04-22T09:01:43.892Z,11.18
2023-04-22T09:04:12.624Z,13.52
2023-04-22T09:06:42.165Z,11.18
2023-04-22T09:09:10.356Z,11.90
2023-04-22T09:11:38.624Z,12.50
2023-04-22T09:14:07.118Z,14.93
2023-04-22T09:16:41.117Z,13.93
2023-04-22T09:19:13.249Z,13.18
2023-04-22T09:21:43.371Z,9.77
2023-04-22T09:24:12.998Z,15.60
2023-04-22T09:26:42.955Z,13.80
2023-04-22T09:29:15.447Z,15.50
2023-04-22T09:31:43.846Z,17.55
2023-04-22T09:34:11.939Z,19.65
2023-04-22T09:36:40.871Z,28.40
2023-04-22T09:39:10.650Z,27.20
2023-04-22T09:41:40.208Z,25.10
2023-04-22T09:44:11.992Z,28.20
2023-04-22T09:46:43.728Z,28.17
2023-04-22T09:49:12.384Z,33.33
2023-04-22T09:51:43.046Z,32.45
2023-04-22T09:54:12.831Z,27.77
2023-04-22T09:56:43.288Z,30.73
2023-04-22T09:59:12.151Z,27.90
2023-04-22T10:01:41.626Z,28.05
2023-04-22T10:04:11.316Z,25.20
2023-04-22T10:06:39.523Z,32.97
2023-04-22T10:09:09.506Z,30.67
2023-04-22T10:11:40.706Z,22.27
2023-04-22T10:14:10.638Z,24.70
2023-04-22T10:16:41.122Z,30.27
2023-04-22T10:19:13.975Z,21.42
2023-04-22T10:21:43.053Z,29.13
2023-04-22T10:24:17.850Z,25.42
2023-04-22T10:26:54.284Z,27.30
2023-04-22T10:29:23.847Z,28.65
2023-04-22T10:31:57.348Z,22.65
2023-04-22T10:34:25.907Z,24.08
2023-04-22T10:36:57.802Z,24.67
2023-04-22T10:39:26.890Z,27.15
2023-04-22T10:42:06.402Z,24.52
2023-04-22T10:45:03.735Z,26.00
2023-04-22T10:47:33.953Z,23.92
2023-04-22T10:50:21.258Z,25.05
2023-04-22T10:52:52.929Z,29.00
2023-04-22T10:55:21.431Z,25.67
2023-04-22T10:57:52.474Z,22.70
2023-04-22T11:00:24.428Z,24.30
2023-04-22T11:02:55.190Z,21.67
2023-04-22T11:05:27.220Z,24.75
2023-04-22T11:07:57.169Z,29.77
2023-04-22T11:10:45.146Z,23.48
2023-04-22T11:13:16.921Z,17.52
2023-04-22T11:15:46.741Z,19.30
2023-04-22T11:18:18.626Z,22.60
2023-04-22T11:20:49.224Z,12.95
2023-04-22T11:23:23.410Z,11.40
2023-04-22T11:25:56.168Z,19.77
2023-04-22T11:28:25.688Z,13.50
2023-04-22T11:30:54.443Z,11.63
2023-04-22T11:33:22.784Z,11.00
2023-04-22T11:35:51.949Z,12.68
2023-04-22T11:38:20.227Z,9.43
2023-04-22T11:40:49.013Z,10.27
2023-04-22T11:43:18.699Z,9.82
2023-04-22T11:45:48.442Z,13.02
2023-04-22T11:48:16.922Z,7.60
2023-04-22T11:50:45.438Z,6.65
2023-04-22T11:53:16.130Z,10.02
2023-04-22T11:55:45.758Z,9.05
2023-04-22T11:58:20.540Z,11.25
2023-04-22T12:00:51.855Z,11.73
2023-04-22T12:03:22.542Z,10.05
2023-04-22T12:05:54.336Z,9.32
2023-04-22T12:08:24.429Z,9.38
2023-04-22T12:10:54.635Z,8.00
2023-04-22T12:13:24.355Z,9.15
2023-04-22T12:15:58.449Z,8.95
2023-04-22T12:18:33.582Z,9.75
2023-04-22T12:21:02.464Z,11.07
2023-04-22T12:23:30.654Z,10.40
2023-04-22T12:25:58.894Z,13.48
2023-04-22T12:28:27.017Z,8.88
2023-04-22T12:30:56.527Z,12.70
2023-04-22T12:33:24.656Z,8.68
2023-04-22T12:35:53.057Z,7.93
2023-04-22T12:38:21.249Z,8.57
2023-04-22T12:40:49.497Z,8.80
2023-04-22T12:43:17.687Z,8.32
2023-04-22T12:45:46.037Z,7.47
2023-04-22T12:48:15.517Z,11.02
2023-04-22T12:50:44.401Z,6.30
2023-04-22T12:53:12.505Z,9.73
2023-04-22T12:55:42.550Z,9.43
2023-04-22T12:58:12.409Z,10.77
2023-04-22T13:00:40.630Z,8.45
2023-04-22T13:03:09.007Z,6.47
2023-04-22T13:05:39.876Z,10.05
2023-04-22T13:08:08.408Z,9.93
2023-04-22T13:10:36.904Z,9.35
2023-04-22T13:13:17.781Z,8.57
2023-04-22T13:15:47.483Z,9.30
2023-04-22T13:18:17.165Z,7.68
2023-04-22T13:20:47.817Z,10.00
2023-04-22T13:23:17.294Z,9.13
2023-04-22T13:25:45.869Z,8.55
2023-04-22T13:28:14.065Z,7.60
2023-04-22T13:30:42.347Z,7.38
2023-04-22T13:33:10.517Z,10.18
2023-04-22T13:35:38.790Z,10.63
2023-04-22T13:38:08.342Z,11.65
2023-04-22T13:40:36.677Z,12.95
2023-04-22T13:43:05.048Z,8.45
2023-04-22T13:45:33.213Z,13.40
2023-04-22T13:48:01.409Z,12.32
2023-04-22T13:50:29.698Z,12.65
2023-04-22T13:52:57.811Z,13.73
2023-04-22T13:55:27.700Z,10.43
2023-04-22T13:57:55.862Z,13.10
2023-04-22T14:00:24.017Z,10.80
2023-04-22T14:02:52.338Z,13.05
2023-04-22T14:05:20.565Z,12.65
2023-04-22T14:07:48.715Z,11.95
2023-04-22T14:10:20.307Z,13.82
2023-04-22T14:12:50.428Z,11.65
2023-04-22T14:15:18.715Z,12.95
2023-04-22T14:17:49.604Z,9.85
2023-04-22T14:20:17.976Z,9.73
2023-04-22T14:22:46.266Z,10.48
2023-04-22T14:25:14.508Z,10.70
2023-04-22T14:27:42.663Z,12.80
2023-04-22T14:30:13.578Z,10.63
2023-04-22T14:32:41.733Z,10.70
2023-04-22T14:35:10.109Z,9.73
2023-04-22T14:37:39.809Z,7.63
2023-04-22T14:40:09.091Z,10.48
2023-04-22T14:42:37.286Z,7.78
2023-04-22T14:45:05.914Z,7.32
2023-04-22T14:47:35.461Z,9.23
2023-04-22T14:50:03.543Z,7.88
2023-04-22T14:52:32.999Z,11.60
2023-04-22T14:55:11.834Z,10.48
2023-04-22T14:57:48.216Z,6.93
2023-04-22T15:00:16.584Z,7.60
2023-04-22T15:02:46.437Z,7.55
2023-04-22T15:05:14.671Z,9.90
2023-04-22T15:07:42.868Z,9.70
2023-04-22T15:10:11.296Z,11.20
2023-04-22T15:12:39.410Z,9.25
2023-04-22T15:15:08.385Z,9.60
2023-04-22T15:17:36.582Z,9.82
2023-04-22T15:20:09.143Z,9.88
2023-04-22T15:22:37.801Z,9.30
2023-04-22T15:25:09.895Z,11.30
2023-04-22T15:27:38.967Z,9.20
2023-04-22T15:30:08.569Z,11.57
2023-04-22T15:32:39.057Z,10.80
2023-04-22T15:35:09.371Z,11.45
2023-04-22T15:37:37.565Z,10.73
2023-04-22T15:40:07.724Z,10.93
2023-04-22T15:42:36.194Z,10.70
2023-04-22T15:45:04.602Z,9.40
2023-04-22T15:47:33.816Z,13.25
2023-04-22T15:50:06.673Z,18.40
2023-04-22T15:52:38.561Z,15.50
2023-04-22T15:55:07.803Z,16.85
2023-04-22T15:57:36.161Z,15.85
2023-04-22T16:00:12.773Z,15.93
2023-04-22T16:02:43.708Z,15.27
2023-04-22T16:05:14.124Z,18.35
2023-04-22T16:07:43.713Z,20.30
2023-04-22T16:10:12.265Z,19.90
2023-04-22T16:12:40.431Z,15.57
2023-04-22T16:15:10.705Z,17.38
2023-04-22T16:17:39.427Z,15.82
2023-04-22T16:20:08.739Z,16.27
2023-04-22T16:22:37.188Z,16.08
2023-04-22T16:25:07.610Z,16.58
2023-04-22T16:27:35.812Z,20.45
2023-04-22T16:30:03.953Z,15.25
2023-04-22T16:32:32.315Z,16.08
2023-04-22T16:35:00.437Z,18.77
2023-04-22T16:37:30.356Z,16.65
2023-04-22T16:39:58.721Z,15.20
2023-04-22T16:42:28.814Z,19.05
2023-04-22T16:44:56.977Z,14.98
2023-04-22T16:47:25.218Z,18.83
2023-04-22T16:49:53.501Z,18.10
2023-04-22T16:52:23.298Z,16.63
2023-04-22T16:54:52.254Z,18.15
2023-04-22T16:57:20.508Z,16.90
2023-04-22T16:59:50.023Z,17.13
2023-04-22T17:02:18.261Z,17.85
2023-04-22T17:04:46.400Z,15.50
2023-04-22T17:07:14.551Z,16.08
2023-04-22T17:09:42.991Z,16.17
2023-04-22T17:12:11.450Z,13.20
2023-04-22T17:14:39.549Z,13.27
2023-04-22T17:17:09.039Z,13.70
2023-04-22T17:19:37.510Z,9.75
2023-04-22T17:22:05.931Z,12.63
2023-04-22T17:24:34.030Z,13.60
2023-04-22T17:27:02.977Z,10.85
2023-04-22T17:29:31.111Z,12.23
2023-04-22T17:31:59.262Z,9.50
2023-04-22T17:34:29.286Z,12.40
2023-04-22T17:36:57.420Z,10.63
2023-04-22T17:39:25.544Z,9.52
2023-04-22T17:41:53.824Z,11.57
2023-04-22T17:44:22.104Z,11.82
2023-04-22T17:46:50.347Z,11.60
2023-04-22T17:49:18.510Z,10.90
2023-04-22T17:51:48.728Z,12.15
2023-04-22T17:54:16.901Z,12.93
2023-04-22T17:56:45.127Z,12.15
2023-04-22T17:59:13.301Z,13.40
2023-04-22T18:01:41.972Z,14.30
2023-04-22T18:04:10.157Z,12.98
2023-04-22T18:06:38.333Z,11.27
2023-04-22T18:09:08.412Z,13.45
2023-04-22T18:11:36.674Z,12.05
2023-04-22T18:14:05.254Z,11.88
2023-04-22T18:16:33.370Z,13.63
2023-04-22T18:19:02.731Z,11.98
2023-04-22T18:21:31.454Z,14.95
2023-04-22T18:23:59.570Z,15.95
2023-04-22T18:26:29.100Z,12.27
2023-04-22T18:28:57.261Z,12.55
2023-04-22T18:31:25.874Z,14.02
2023-04-22T18:33:54.250Z,13.80
2023-04-22T18:36:22.518Z,15.30
2023-04-22T18:38:50.689Z,12.57
2023-04-22T18:41:18.978Z,13.77
2023-04-22T18:43:48.552Z,13.32
2023-04-22T18:46:16.980Z,12.93
2023-04-22T18:48:45.087Z,13.52
2023-04-22T18:51:13.572Z,14.40
2023-04-22T18:53:41.744Z,14.07
2023-04-22T18:56:10.095Z,11.30
2023-04-22T18:58:38.193Z,14.82
2023-04-22T19:01:08.233Z,12.02
2023-04-22T19:03:36.812Z,9.80
2023-04-22T19:06:05.767Z,11.88
2023-04-22T19:08:34.558Z,10.23
2023-04-22T19:11:02.719Z,9.68
2023-04-22T19:13:31.297Z,13.48
2023-04-22T19:16:00.056Z,8.55
2023-04-22T19:18:29.555Z,11.13
2023-04-22T19:20:57.773Z,14.13
2023-04-22T19:23:25.990Z,10.75
2023-04-22T19:25:54.171Z,14.43
2023-04-22T19:28:22.265Z,8.80
2023-04-22T19:30:50.949Z,15.32
2023-04-22T19:33:19.251Z,9.55
2023-04-22T19:35:48.717Z,7.18
2023-04-22T19:38:19.153Z,7.22
2023-04-22T19:40:47.466Z,9.38
2023-04-22T19:43:17.119Z,8.20
2023-04-22T19:45:45.483Z,7.80
2023-04-22T19:48:14.065Z,7.78
2023-04-22T19:50:44.555Z,6.53
2023-04-22T19:53:14.820Z,6.43
2023-04-22T19:55:44.289Z,8.57
2023-04-22T19:58:12.629Z,7.93
2023-04-22T20:00:42.732Z,7.15
2023-04-22T20:03:13.209Z,5.97
2023-04-22T20:05:42.286Z,9.70
2023-04-22T20:08:12.738Z,8.25
2023-04-22T20:10:42.548Z,10.32
2023-04-22T20:13:11.094Z,9.98
2023-04-22T20:15:39.547Z,6.00
2023-04-22T20:18:08.146Z,9.70
2023-04-22T20:20:36.430Z,7.68
2023-04-22T20:23:10.541Z,8.27
2023-04-22T20:25:40.718Z,6.88
2023-04-22T20:28:10.792Z,6.65
2023-04-22T20:30:39.454Z,6.78
2023-04-22T20:33:07.908Z,7.55
2023-04-22T20:35:36.760Z,8.07
2023-04-22T20:38:05.073Z,8.32
2023-04-22T20:40:35.622Z,8.23
2023-04-22T20:43:04.346Z,7.47
2023-04-22T20:45:33.875Z,8.82
2023-04-22T20:48:02.040Z,11.10
2023-04-22T20:50:33.510Z,10.32
2023-04-22T20:53:02.132Z,8.98
2023-04-22T20:55:30.343Z,8.35
2023-04-22T20:57:58.773Z,10.23
2023-04-22T21:00:27.079Z,9.70
2023-04-22T21:02:57.280Z,7.35
2023-04-22T21:05:27.521Z,8.90
2023-04-22T21:07:56.196Z,10.73
2023-04-22T21:10:25.273Z,8.52
2023-04-22T21:12:55.574Z,7.10
2023-04-22T21:15:25.121Z,9.30
2023-04-22T21:17:56.625Z,8.63
2023-04-22T21:20:28.902Z,9.90
2023-04-22T21:22:59.727Z,8.38
2023-04-22T21:25:31.197Z,9.75
2023-04-22T21:27:59.738Z,8.23
2023-04-22T21:30:28.277Z,7.28
2023-04-22T21:32:56.378Z,7.22
2023-04-22T21:35:26.062Z,5.82
2023-04-22T21:37:55.455Z,8.05
2023-04-22T21:40:24.030Z,8.93
2023-04-22T21:42:52.125Z,9.55
2023-04-22T21:45:20.419Z,8.93
2023-04-22T21:47:48.572Z,9.23
2023-04-22T21:50:18.095Z,10.73
2023-04-22T21:52:49.708Z,7.30
2023-04-22T21:55:18.345Z,9.30
2023-04-22T21:57:46.865Z,7.85
2023-04-22T22:00:17.361Z,7.80
2023-04-22T22:02:45.839Z,9.70
2023-04-22T22:05:15.714Z,8.40
2023-04-22T22:07:45.100Z,8.48
2023-04-22T22:10:19.015Z,9.05
2023-04-22T22:12:48.235Z,8.30
2023-04-22T22:15:16.686Z,8.52
2023-04-22T22:17:45.530Z,8.23
2023-04-22T22:20:16.846Z,10.93
2023-04-22T22:22:45.587Z,9.75
2023-04-22T22:25:17.184Z,11.68
2023-04-22T22:27:47.300Z,10.32
2023-04-22T22:30:16.032Z,9.68
2023-04-22T22:32:44.243Z,12.52
2023-04-22T22:35:13.018Z,14.02
2023-04-22T22:37:41.310Z,11.50
2023-04-22T22:40:10.137Z,11.30
2023-04-22T22:42:39.629Z,9.98
2023-04-22T22:45:08.496Z,10.40
2023-04-22T22:47:36.862Z,10.73
2023-04-22T22:50:07.029Z,12.45
2023-04-22T22:52:35.176Z,16.00
2023-04-22T22:55:03.264Z,11.57
2023-04-22T22:57:31.381Z,15.82
2023-04-22T23:00:00.755Z,15.85
2023-04-22T23:02:29.134Z,14.55
2023-04-22T23:04:57.329Z,12.00
2023-04-22T23:07:25.848Z,17.25
2023-04-22T23:09:53.903Z,15.00
2023-04-22T23:12:22.070Z,13.75
2023-04-22T23:14:50.089Z,14.65
2023-04-22T23:17:19.601Z,15.23
2023-04-22T23:19:48.273Z,14.23
2023-04-22T23:22:16.593Z,16.23
2023-04-22T23:24:45.117Z,18.67
2023-04-22T23:27:13.587Z,14.65
2023-04-22T23:29:42.180Z,16.10
2023-04-22T23:32:13.090Z,18.90
2023-04-22T23:34:46.529Z,15.13
2023-04-22T23:37:16.494Z,14.23
2023-04-22T23:39:44.700Z,16.10
2023-04-22T23:42:12.836Z,14.45
2023-04-22T23:44:41.192Z,11.00
2023-04-22T23:47:09.547Z,14.15
2023-04-22T23:49:37.779Z,14.07
2023-04-22T23:52:08.047Z,12.93
2023-04-22T23:54:36.635Z,15.75
2023-04-22T23:57:05.108Z,16.02
2023-04-22T23:59:33.737Z,13.68
